Galveston, Texas
Current Conditions -  °F | °C
As of 4:52 PM on Friday 28 Nov 2014 (Local Time) from KGLS Reporting Station
Scattered Clouds Scattered Clouds  
Wind Chill: 65°   Ceiling: Unl
Heat Index: 65°   Visibility: 10mi
Dew Point: 60°   Wind: 9mph
Humidity: 84%   Direction: 150°SSE
Pressure: 30.2"   Gusts: NA
Location:  29.3°N, 94.81°W
Report Text: KGLS 282252Z 15008KT 10SM SCT050 18/16 A3020 RMK AO2 SLP225 T01830156
Loading
Personal Weather Stations






























Interactive Weather Map New forecast layout! Learn more

10-Day Weather Forecast

Advertisements
Track Severe Weather on mobile